createdAt,value
2018-06-10T18:11:37.995Z,7.83
2018-06-10T18:14:55.991Z,9.57
2018-06-10T18:18:15.915Z,9.90
2018-06-10T18:21:35.811Z,7.90
2018-06-10T18:24:56.070Z,7.93
2018-06-10T18:28:16.225Z,7.80
2018-06-10T18:31:36.351Z,8.27
2018-06-10T18:34:55.099Z,8.73
2018-06-10T18:38:13.903Z,9.67
2018-06-10T18:41:32.195Z,9.87
2018-06-10T18:44:50.492Z,9.33
2018-06-10T18:48:08.819Z,8.57
2018-06-10T18:51:27.149Z,9.20
2018-06-10T18:54:45.432Z,10.00
2018-06-10T18:58:04.209Z,9.60
2018-06-10T19:01:22.595Z,9.30
2018-06-10T19:04:41.293Z,9.20
2018-06-10T19:08:00.097Z,12.23
2018-06-10T19:11:18.515Z,10.50
2018-06-10T19:14:36.807Z,8.97
2018-06-10T19:17:55.074Z,9.77
2018-06-10T19:21:13.926Z,9.07
2018-06-10T19:24:32.600Z,8.90
2018-06-10T19:27:50.876Z,8.40
2018-06-10T19:31:09.145Z,9.40
2018-06-10T19:34:27.403Z,8.33
2018-06-10T19:37:45.671Z,8.43
2018-06-10T19:41:03.979Z,8.80
2018-06-10T19:44:22.260Z,8.50
2018-06-10T19:47:40.567Z,11.40
2018-06-10T19:50:58.861Z,8.60
2018-06-10T19:54:17.123Z,8.33
2018-06-10T19:57:35.397Z,7.63
2018-06-10T20:00:53.712Z,7.90
2018-06-10T20:04:11.988Z,7.83
2018-06-10T20:07:30.492Z,7.93
2018-06-10T20:10:49.344Z,7.50
2018-06-10T20:14:08.355Z,7.70
2018-06-10T20:17:27.270Z,7.80
2018-06-10T20:20:45.791Z,8.13
2018-06-10T20:24:04.431Z,7.57
2018-06-10T20:27:23.559Z,8.30
2018-06-10T20:30:41.925Z,8.10
2018-06-10T20:34:00.593Z,9.90
2018-06-10T20:37:21.936Z,8.50
2018-06-10T20:40:40.608Z,8.17
2018-06-10T20:44:00.270Z,8.00
2018-06-10T20:47:19.941Z,7.50
2018-06-10T20:50:40.985Z,7.77
2018-06-10T20:54:01.472Z,7.70
2018-06-10T20:57:21.948Z,7.57
2018-06-10T21:00:42.107Z,8.00
2018-06-10T21:04:00.885Z,8.30
2018-06-10T21:07:21.183Z,7.50
2018-06-10T21:10:41.306Z,8.50
2018-06-10T21:14:00.584Z,8.27
2018-06-10T21:17:20.484Z,8.30
2018-06-10T21:20:40.335Z,8.20
2018-06-10T21:24:00.331Z,8.43
2018-06-10T21:27:20.053Z,8.80
2018-06-10T21:30:39.998Z,8.70
2018-06-10T21:33:59.626Z,8.70
2018-06-10T21:37:19.057Z,9.10
2018-06-10T21:40:39.532Z,8.73
2018-06-10T21:44:00.078Z,8.67
2018-06-10T21:47:18.362Z,9.13
2018-06-10T21:50:36.635Z,8.40
2018-06-10T21:53:55.017Z,8.47
2018-06-10T21:57:13.268Z,9.60
2018-06-10T22:00:31.556Z,9.67
2018-06-10T22:03:49.836Z,9.20
2018-06-10T22:07:07.834Z,9.30
2018-06-10T22:10:26.113Z,10.67
2018-06-10T22:13:44.452Z,10.07
2018-06-10T22:17:02.713Z,10.37
2018-06-10T22:20:20.718Z,11.03
2018-06-10T22:23:38.982Z,10.53
2018-06-10T22:26:57.262Z,10.50
2018-06-10T22:30:15.259Z,10.57
2018-06-10T22:33:33.544Z,10.30
2018-06-10T22:36:51.893Z,10.87
2018-06-10T22:40:10.119Z,10.23
2018-06-10T22:43:28.389Z,11.20
2018-06-10T22:46:46.404Z,10.83
2018-06-10T22:50:04.699Z,11.40
2018-06-10T22:55:32.090Z,10.60
2018-06-10T22:58:50.358Z,11.30
2018-06-10T23:02:09.355Z,11.13
2018-06-10T23:05:27.645Z,11.87
2018-06-10T23:08:45.897Z,11.23
2018-06-10T23:12:04.576Z,11.60
2018-06-10T23:15:22.985Z,11.43
2018-06-10T23:18:41.268Z,11.17
2018-06-10T23:21:59.541Z,12.17
2018-06-10T23:25:17.804Z,11.73
2018-06-10T23:28:36.084Z,11.17
2018-06-10T23:31:54.367Z,11.80
2018-06-10T23:35:12.634Z,11.20
2018-06-10T23:38:30.918Z,12.03
2018-06-10T23:41:49.195Z,12.13
2018-06-10T23:45:07.471Z,12.00
2018-06-10T23:48:25.743Z,11.97
2018-06-10T23:51:45.076Z,11.77
2018-06-10T23:55:03.335Z,12.37
2018-06-10T23:58:21.725Z,12.57
